createdAt,value
2023-05-09T00:00:38.470Z,100
2023-05-09T00:10:38.473Z,100
2023-05-09T00:20:38.404Z,100
2023-05-09T00:30:38.415Z,100
2023-05-09T00:40:38.414Z,100
2023-05-09T00:50:38.397Z,100
2023-05-09T01:00:38.427Z,100
2023-05-09T01:10:38.404Z,100
2023-05-09T01:20:38.371Z,100
2023-05-09T01:30:38.366Z,100
2023-05-09T01:40:38.378Z,100
2023-05-09T01:50:38.344Z,100
2023-05-09T02:00:38.409Z,100
2023-05-09T02:10:38.375Z,100
2023-05-09T02:20:38.375Z,100
2023-05-09T02:30:38.426Z,100
2023-05-09T02:40:38.332Z,100
2023-05-09T02:50:38.522Z,100
2023-05-09T03:00:38.331Z,100
2023-05-09T03:10:38.325Z,100
2023-05-09T03:20:38.341Z,100
2023-05-09T03:30:38.332Z,100
2023-05-09T03:40:38.312Z,100
2023-05-09T03:50:38.293Z,100
2023-05-09T04:00:38.302Z,100
2023-05-09T04:10:38.289Z,100
2023-05-09T04:20:38.284Z,100
2023-05-09T04:30:38.348Z,100
2023-05-09T04:40:45.515Z,100
2023-05-09T04:50:38.260Z,100
2023-05-09T05:00:38.250Z,100
2023-05-09T05:10:38.251Z,100
2023-05-09T05:20:38.243Z,100
2023-05-09T05:30:38.285Z,100
2023-05-09T05:40:38.271Z,100
2023-05-09T05:50:38.214Z,100
2023-05-09T06:00:38.227Z,100
2023-05-09T06:10:38.189Z,100
2023-05-09T06:20:38.196Z,100
2023-05-09T06:30:38.230Z,100
2023-05-09T06:40:38.231Z,100
2023-05-09T06:50:38.208Z,100
2023-05-09T07:00:38.181Z,100
2023-05-09T07:10:38.174Z,100
2023-05-09T07:20:38.221Z,100
2023-05-09T07:30:38.212Z,100
2023-05-09T07:40:38.270Z,100
2023-05-09T07:50:38.232Z,100
2023-05-09T08:00:38.188Z,98
2023-05-09T08:10:38.159Z,100
2023-05-09T08:20:38.216Z,100
2023-05-09T08:30:38.162Z,97
2023-05-09T08:40:38.143Z,94
2023-05-09T08:50:38.142Z,94
2023-05-09T09:00:38.115Z,89
2023-05-09T09:10:38.215Z,92
2023-05-09T09:20:38.097Z,88
2023-05-09T09:30:38.111Z,83
2023-05-09T09:40:38.098Z,80
2023-05-09T09:50:38.036Z,70
2023-05-09T10:00:38.041Z,70
2023-05-09T10:10:38.090Z,76
2023-05-09T10:20:38.024Z,74
2023-05-09T10:30:38.018Z,74
2023-05-09T10:40:38.032Z,66
2023-05-09T10:50:37.993Z,72
2023-05-09T11:00:37.972Z,76
2023-05-09T11:10:38.003Z,76
2023-05-09T11:20:38.003Z,73
2023-05-09T11:30:37.958Z,76
2023-05-09T11:40:37.949Z,76
2023-05-09T11:50:37.953Z,70
2023-05-09T12:00:37.955Z,69
2023-05-09T12:10:37.922Z,69
2023-05-09T12:20:37.914Z,67
2023-05-09T12:30:37.914Z,63
2023-05-09T12:40:37.879Z,62
2023-05-09T12:50:37.882Z,54
2023-05-09T13:00:37.896Z,55
2023-05-09T13:10:37.840Z,60
2023-05-09T13:20:37.840Z,51
2023-05-09T13:30:37.844Z,56
2023-05-09T13:40:37.836Z,56
2023-05-09T13:50:37.842Z,60
2023-05-09T14:00:37.825Z,55
2023-05-09T14:10:37.805Z,54
2023-05-09T14:20:37.818Z,52
2023-05-09T14:30:37.792Z,53
2023-05-09T14:40:37.801Z,50
2023-05-09T14:50:37.773Z,50
2023-05-09T15:00:37.775Z,49
2023-05-09T15:10:37.764Z,53
2023-05-09T15:20:37.738Z,53
2023-05-09T15:30:38.406Z,52
2023-05-09T15:40:37.692Z,50
2023-05-09T15:50:37.699Z,51
2023-05-09T16:00:37.709Z,49
2023-05-09T16:10:37.694Z,51
2023-05-09T16:20:37.701Z,50
2023-05-09T16:30:37.680Z,52
2023-05-09T16:40:37.664Z,53
2023-05-09T16:50:37.663Z,58
2023-05-09T17:00:37.665Z,59
2023-05-09T17:10:38.510Z,58
2023-05-09T17:20:37.644Z,60
2023-05-09T17:30:37.626Z,62
2023-05-09T17:40:37.643Z,64
2023-05-09T17:50:37.583Z,65
2023-05-09T18:00:37.687Z,68
2023-05-09T18:10:37.668Z,70
2023-05-09T18:20:37.589Z,69
2023-05-09T18:30:37.570Z,72
2023-05-09T18:40:37.585Z,75
2023-05-09T18:50:37.598Z,79
2023-05-09T19:00:37.563Z,81
2023-05-09T19:10:37.572Z,85
2023-05-09T19:20:37.539Z,89
2023-05-09T19:30:37.572Z,95
2023-05-09T19:40:37.546Z,96
2023-05-09T19:50:37.514Z,95
2023-05-09T20:00:37.660Z,97
2023-05-09T20:10:37.526Z,96
2023-05-09T20:20:37.495Z,97
2023-05-09T20:30:37.509Z,98
2023-05-09T20:40:37.529Z,100
2023-05-09T20:50:37.588Z,100
2023-05-09T21:00:37.505Z,100
2023-05-09T21:10:37.498Z,100
2023-05-09T21:20:37.496Z,100
2023-05-09T21:30:37.434Z,100
2023-05-09T21:40:37.442Z,100
2023-05-09T21:50:37.447Z,100
2023-05-09T22:00:37.470Z,100
2023-05-09T22:10:37.439Z,100
2023-05-09T22:20:37.449Z,100
2023-05-09T22:30:37.456Z,100
2023-05-09T22:40:37.435Z,100
2023-05-09T22:50:37.409Z,100
2023-05-09T23:00:37.428Z,100
2023-05-09T23:10:37.416Z,100
2023-05-09T23:20:37.446Z,100
2023-05-09T23:30:37.441Z,100
2023-05-09T23:40:37.432Z,100
2023-05-09T23:50:37.418Z,100
